createdAt,value
2022-12-18T00:01:30.253Z,12.23
2022-12-18T00:03:57.761Z,12.30
2022-12-18T00:06:28.137Z,12.82
2022-12-18T00:08:57.356Z,11.77
2022-12-18T00:11:28.611Z,11.18
2022-12-18T00:13:57.332Z,10.82
2022-12-18T00:16:27.648Z,11.65
2022-12-18T00:18:58.751Z,13.07
2022-12-18T00:21:26.263Z,12.20
2022-12-18T00:23:53.815Z,9.82
2022-12-18T00:26:25.121Z,10.73
2022-12-18T00:28:53.010Z,10.37
2022-12-18T00:31:25.423Z,11.25
2022-12-18T00:33:55.246Z,11.15
2022-12-18T00:36:29.299Z,11.50
2022-12-18T00:38:58.375Z,11.30
2022-12-18T00:41:44.736Z,13.05
2022-12-18T00:44:15.471Z,13.18
2022-12-18T00:46:44.180Z,11.90
2022-12-18T00:49:12.065Z,12.57
2022-12-18T00:51:38.784Z,12.88
2022-12-18T00:54:05.805Z,10.63
2022-12-18T00:56:32.710Z,12.77
2022-12-18T00:58:59.437Z,13.25
2022-12-18T01:01:26.231Z,11.52
2022-12-18T01:03:53.046Z,12.07
2022-12-18T01:06:19.816Z,10.90
2022-12-18T01:08:46.600Z,12.32
2022-12-18T01:11:20.189Z,10.77
2022-12-18T01:13:47.184Z,9.20
2022-12-18T01:16:16.614Z,10.48
2022-12-18T01:18:43.625Z,9.23
2022-12-18T01:21:15.078Z,9.10
2022-12-18T01:23:42.321Z,8.45
2022-12-18T01:26:15.192Z,9.88
2022-12-18T01:28:42.962Z,7.40
2022-12-18T01:31:26.024Z,8.50
2022-12-18T01:33:54.193Z,7.70
2022-12-18T01:36:33.609Z,8.60
2022-12-18T01:39:12.585Z,6.65
2022-12-18T01:41:58.718Z,7.70
2022-12-18T01:45:01.405Z,7.13
2022-12-18T01:47:57.220Z,7.88
2022-12-18T01:50:47.215Z,7.97
2022-12-18T01:53:19.513Z,6.90
2022-12-18T01:58:25.304Z,6.30
2022-12-18T02:00:52.049Z,7.25
2022-12-18T02:03:18.965Z,6.20
2022-12-18T02:05:50.146Z,7.82
2022-12-18T02:08:34.408Z,7.90
2022-12-18T02:11:37.844Z,7.13
2022-12-18T02:14:56.490Z,6.35
2022-12-18T02:18:09.457Z,6.43
2022-12-18T02:20:46.806Z,6.65
2022-12-18T02:23:49.890Z,8.20
2022-12-18T02:26:38.893Z,8.20
2022-12-18T02:29:13.952Z,9.10
2022-12-18T02:31:53.905Z,8.20
2022-12-18T02:34:25.984Z,8.90
2022-12-18T02:36:55.444Z,7.80
2022-12-18T02:39:24.825Z,8.30
2022-12-18T02:41:52.471Z,8.77
2022-12-18T02:44:19.380Z,9.25
2022-12-18T02:46:51.547Z,8.85
2022-12-18T02:49:39.330Z,8.77
2022-12-18T02:52:22.267Z,8.10
2022-12-18T02:55:17.131Z,7.68
2022-12-18T02:58:18.474Z,8.85
2022-12-18T03:01:00.665Z,10.88
2022-12-18T03:03:43.897Z,9.65
2022-12-18T03:06:18.987Z,8.50
2022-12-18T03:08:53.248Z,8.93
2022-12-18T03:11:40.129Z,10.43
2022-12-18T03:14:08.789Z,10.15
2022-12-18T03:16:38.680Z,10.75
2022-12-18T03:19:17.899Z,10.20
2022-12-18T03:21:49.220Z,9.75
2022-12-18T03:24:18.313Z,9.50
2022-12-18T03:26:50.406Z,9.68
2022-12-18T03:29:29.088Z,9.02
2022-12-18T03:32:03.878Z,9.07
2022-12-18T03:34:38.542Z,9.40
2022-12-18T03:37:06.868Z,10.30
2022-12-18T03:39:36.112Z,9.40
2022-12-18T03:42:40.207Z,10.05
2022-12-18T03:45:37.458Z,10.52
2022-12-18T03:48:36.200Z,11.13
2022-12-18T03:51:50.134Z,10.50
2022-12-18T03:54:18.831Z,10.57
2022-12-18T03:56:57.414Z,9.52
2022-12-18T03:59:26.162Z,11.18
2022-12-18T04:01:55.772Z,10.40
2022-12-18T04:04:24.221Z,11.45
2022-12-18T04:06:51.896Z,10.85
2022-12-18T04:09:20.260Z,10.88
2022-12-18T04:11:48.239Z,11.48
2022-12-18T04:14:17.940Z,10.10
2022-12-18T04:16:45.410Z,11.13
2022-12-18T04:19:12.123Z,12.23
2022-12-18T04:21:38.802Z,10.68
2022-12-18T04:24:05.879Z,10.95
2022-12-18T04:26:32.582Z,11.65
2022-12-18T04:28:59.291Z,10.13
2022-12-18T04:31:26.024Z,11.38
2022-12-18T04:33:52.809Z,11.55
2022-12-18T04:36:19.550Z,10.75
2022-12-18T04:38:46.251Z,10.02
2022-12-18T04:41:13.040Z,10.73
2022-12-18T04:43:40.225Z,10.77
2022-12-18T04:46:09.306Z,11.23
2022-12-18T04:48:36.916Z,11.80
2022-12-18T04:51:05.312Z,11.32
2022-12-18T04:53:32.176Z,10.50
2022-12-18T04:56:11.762Z,12.55
2022-12-18T04:58:40.611Z,11.70
2022-12-18T05:01:08.957Z,11.68
2022-12-18T05:03:36.533Z,12.10
2022-12-18T05:06:04.881Z,12.00
2022-12-18T05:08:31.943Z,11.57
2022-12-18T05:11:05.354Z,11.02
2022-12-18T05:13:35.426Z,12.02
2022-12-18T05:16:02.728Z,11.63
2022-12-18T05:18:30.462Z,10.90
2022-12-18T05:20:57.531Z,11.38
2022-12-18T05:23:25.486Z,11.10
2022-12-18T05:25:58.469Z,12.68
2022-12-18T05:28:28.366Z,12.50
2022-12-18T05:30:57.974Z,11.18
2022-12-18T05:33:27.848Z,10.75
2022-12-18T05:36:03.938Z,12.55
2022-12-18T05:38:32.735Z,13.45
2022-12-18T06:01:52.551Z,11.70
2022-12-18T06:04:19.437Z,11.82
2022-12-18T06:06:46.184Z,12.35
2022-12-18T06:09:12.884Z,12.60
2022-12-18T06:11:39.899Z,13.73
2022-12-18T06:14:07.549Z,13.07
2022-12-18T06:16:34.313Z,12.30
2022-12-18T06:19:04.167Z,13.25
2022-12-18T06:21:31.977Z,11.85
2022-12-18T06:24:00.808Z,11.32
2022-12-18T06:26:28.553Z,12.82
2022-12-18T06:28:55.431Z,12.70
2022-12-18T06:31:22.185Z,12.25
2022-12-18T06:33:48.944Z,13.30
2022-12-18T06:36:17.451Z,11.38
2022-12-18T06:38:44.971Z,12.13
2022-12-18T06:41:15.679Z,11.90
2022-12-18T06:43:43.430Z,11.20
2022-12-18T06:46:11.643Z,11.70
2022-12-18T06:48:38.577Z,10.75
2022-12-18T06:51:05.932Z,10.90
2022-12-18T06:53:33.901Z,11.30
2022-12-18T06:56:10.313Z,11.77
2022-12-18T06:58:38.530Z,11.90
2022-12-18T07:01:08.595Z,12.05
2022-12-18T07:03:35.415Z,11.77
2022-12-18T07:06:02.225Z,11.75
2022-12-18T07:08:31.140Z,11.50
2022-12-18T07:10:57.968Z,11.48
2022-12-18T07:13:24.781Z,10.65
2022-12-18T07:15:51.458Z,10.88
2022-12-18T07:18:18.151Z,10.48
2022-12-18T07:20:45.475Z,11.55
2022-12-18T07:23:12.891Z,12.20
2022-12-18T07:25:40.337Z,11.52
2022-12-18T07:28:07.082Z,12.35
2022-12-18T07:30:34.301Z,11.65
2022-12-18T07:33:01.105Z,11.55
2022-12-18T07:35:27.802Z,11.63
2022-12-18T07:37:54.545Z,10.90
2022-12-18T07:40:21.295Z,11.93
2022-12-18T07:42:48.004Z,12.40
2022-12-18T07:45:14.780Z,11.70
2022-12-18T07:47:42.167Z,12.32
2022-12-18T07:50:09.587Z,11.35
2022-12-18T07:52:36.460Z,11.50
2022-12-18T07:55:03.700Z,12.77
2022-12-18T08:00:17.476Z,10.05
2022-12-18T08:02:44.302Z,10.95
2022-12-18T08:05:11.145Z,11.73
2022-12-18T08:07:37.864Z,11.27
2022-12-18T08:10:05.058Z,12.18
2022-12-18T08:12:33.068Z,12.05
2022-12-18T08:14:59.780Z,13.38
2022-12-18T08:17:26.489Z,11.30
2022-12-18T08:19:53.185Z,12.38
2022-12-18T08:22:19.990Z,12.93
2022-12-18T08:24:46.679Z,12.68
2022-12-18T08:27:28.784Z,12.43
2022-12-18T08:29:57.039Z,12.10
2022-12-18T08:32:25.602Z,12.88
2022-12-18T08:34:52.382Z,14.02
2022-12-18T08:37:19.444Z,11.77
2022-12-18T08:39:46.414Z,13.45
2022-12-18T08:42:31.515Z,11.82
2022-12-18T08:44:58.239Z,11.68
2022-12-18T08:47:26.798Z,12.57
2022-12-18T08:49:53.540Z,11.30
2022-12-18T08:52:20.292Z,12.80
2022-12-18T08:54:46.976Z,12.50
2022-12-18T08:57:13.689Z,11.63
2022-12-18T08:59:40.369Z,13.13
2022-12-18T09:02:07.205Z,11.63
2022-12-18T09:04:34.107Z,13.57
2022-12-18T09:07:01.091Z,10.38
2022-12-18T09:09:27.837Z,11.38
2022-12-18T09:11:54.557Z,12.52
2022-12-18T09:14:21.286Z,12.05
2022-12-18T09:16:48.075Z,12.23
2022-12-18T09:19:14.797Z,12.57
2022-12-18T09:21:46.280Z,10.77
2022-12-18T09:24:15.613Z,11.93
2022-12-18T09:26:43.124Z,12.30
2022-12-18T09:29:13.600Z,12.38
2022-12-18T09:31:40.557Z,12.40
2022-12-18T09:34:07.708Z,11.85
2022-12-18T09:36:34.417Z,12.02
2022-12-18T09:39:05.112Z,12.45
2022-12-18T09:41:57.894Z,12.80
2022-12-18T09:44:44.979Z,12.10
2022-12-18T09:47:24.405Z,10.93
2022-12-18T09:50:01.250Z,11.73
2022-12-18T09:52:43.833Z,11.43
2022-12-18T09:55:36.482Z,11.60
2022-12-18T09:58:27.694Z,11.25
2022-12-18T10:00:55.614Z,11.10
2022-12-18T10:03:23.083Z,10.00
2022-12-18T10:06:26.986Z,11.93
2022-12-18T10:09:07.070Z,10.63
2022-12-18T10:11:58.408Z,10.80
2022-12-18T10:14:40.813Z,10.65
2022-12-18T10:17:35.097Z,11.35
2022-12-18T10:20:28.380Z,11.40
2022-12-18T10:23:41.413Z,11.15
2022-12-18T10:26:13.516Z,11.52
2022-12-18T10:28:43.251Z,10.68
2022-12-18T10:31:21.938Z,10.80
2022-12-18T10:33:52.474Z,11.13
2022-12-18T10:36:19.383Z,12.07
2022-12-18T10:38:46.068Z,11.23
2022-12-18T10:41:19.498Z,11.90
2022-12-18T10:43:48.808Z,11.63
2022-12-18T10:46:20.961Z,11.50
2022-12-18T10:51:34.396Z,10.77
2022-12-18T10:54:24.813Z,10.88
2022-12-18T10:56:51.541Z,11.60
2022-12-18T10:59:19.787Z,12.07
2022-12-18T11:01:55.698Z,12.85
2022-12-18T11:04:30.829Z,11.85
2022-12-18T11:07:06.976Z,11.30
2022-12-18T11:09:38.973Z,11.77
2022-12-18T11:12:18.845Z,11.52
2022-12-18T11:14:50.127Z,11.85
2022-12-18T11:17:25.762Z,12.77
2022-12-18T11:19:59.418Z,14.23
2022-12-18T11:22:28.714Z,13.05
2022-12-18T11:25:32.157Z,11.00
2022-12-18T11:28:26.552Z,10.75
2022-12-18T11:31:26.100Z,11.52
2022-12-18T11:34:30.231Z,10.57
2022-12-18T11:37:00.584Z,10.77
2022-12-18T11:39:40.232Z,11.85
2022-12-18T11:42:21.347Z,12.00
2022-12-18T11:45:15.541Z,12.02
2022-12-18T11:47:48.999Z,11.65
2022-12-18T11:50:32.724Z,12.13
2022-12-18T11:53:05.605Z,11.55
2022-12-18T11:56:19.867Z,11.93
2022-12-18T11:59:19.251Z,11.02
2022-12-18T12:01:58.434Z,11.65
2022-12-18T12:05:05.284Z,10.88
2022-12-18T12:08:13.019Z,11.90
2022-12-18T12:10:48.478Z,11.30
2022-12-18T12:13:40.529Z,10.15
2022-12-18T12:19:03.192Z,10.75
2022-12-18T12:21:41.342Z,11.02
2022-12-18T12:24:42.207Z,11.60
2022-12-18T12:28:04.306Z,10.80
2022-12-18T12:30:57.784Z,10.65
2022-12-18T12:33:39.750Z,11.73
2022-12-18T12:36:50.090Z,12.63
2022-12-18T12:39:25.014Z,11.25
2022-12-18T12:42:14.834Z,11.38
2022-12-18T12:44:56.205Z,10.68
2022-12-18T12:47:31.737Z,10.55
2022-12-18T12:50:00.876Z,11.65
2022-12-18T12:52:30.828Z,11.05
2022-12-18T12:54:58.977Z,10.95
2022-12-18T12:57:36.456Z,11.90
2022-12-18T13:00:16.289Z,10.35
2022-12-18T13:03:05.879Z,11.52
2022-12-18T13:06:04.296Z,11.15
2022-12-18T13:08:53.076Z,10.73
2022-12-18T13:12:04.205Z,11.52
2022-12-18T13:14:38.257Z,11.77
2022-12-18T13:17:24.657Z,12.50
2022-12-18T13:19:53.103Z,11.90
2022-12-18T13:22:34.388Z,11.63
2022-12-18T13:25:01.382Z,12.18
2022-12-18T13:27:56.501Z,11.07
2022-12-18T13:30:32.862Z,10.88
2022-12-18T13:33:29.098Z,11.93
2022-12-18T13:36:22.682Z,12.75
2022-12-18T13:39:28.875Z,11.52
2022-12-18T13:42:05.651Z,10.23
2022-12-18T13:44:43.258Z,10.55
2022-12-18T13:47:34.998Z,12.25
2022-12-18T13:50:10.481Z,12.02
2022-12-18T13:52:40.230Z,12.43
2022-12-18T13:55:16.711Z,11.30
2022-12-18T13:57:43.475Z,10.95
2022-12-18T14:00:29.565Z,11.55
2022-12-18T14:02:58.876Z,11.77
2022-12-18T14:05:47.447Z,12.13
2022-12-18T14:08:17.040Z,11.35
2022-12-18T14:10:50.448Z,11.43
2022-12-18T14:13:29.034Z,11.77
2022-12-18T14:15:57.557Z,12.20
2022-12-18T14:18:46.395Z,12.07
2022-12-18T14:21:33.362Z,11.20
2022-12-18T14:24:21.377Z,11.65
2022-12-18T14:26:50.422Z,10.82
2022-12-18T14:29:22.360Z,11.73
2022-12-18T14:32:18.742Z,12.20
2022-12-18T14:34:49.036Z,12.23
2022-12-18T14:37:21.246Z,12.00
2022-12-18T14:40:02.207Z,12.27
2022-12-18T14:42:31.761Z,10.95
2022-12-18T14:45:42.382Z,11.60
2022-12-18T14:48:12.736Z,11.50
2022-12-18T14:50:41.015Z,12.33
2022-12-18T14:53:35.972Z,11.75
2022-12-18T14:56:11.141Z,11.85
2022-12-18T14:58:37.892Z,11.95
2022-12-18T15:01:04.730Z,10.38
2022-12-18T15:03:31.499Z,12.60
2022-12-18T15:06:27.047Z,12.18
2022-12-18T15:08:54.361Z,14.10
2022-12-18T15:11:46.861Z,12.52
2022-12-18T15:14:40.852Z,11.43
2022-12-18T15:17:23.890Z,12.05
2022-12-18T15:20:00.890Z,12.50
2022-12-18T15:22:31.337Z,12.40
2022-12-18T15:24:59.735Z,13.00
2022-12-18T15:27:35.669Z,12.07
2022-12-18T15:30:11.075Z,12.45
2022-12-18T15:32:39.314Z,14.15
2022-12-18T15:35:15.921Z,12.25
2022-12-18T15:37:43.523Z,12.20
2022-12-18T15:40:16.168Z,13.25
2022-12-18T15:43:03.863Z,12.60
2022-12-18T15:45:30.563Z,12.15
2022-12-18T15:47:58.278Z,11.75
2022-12-18T15:50:25.881Z,12.45
2022-12-18T15:52:56.292Z,11.88
2022-12-18T15:55:43.408Z,12.23
2022-12-18T15:58:12.843Z,12.15
2022-12-18T16:00:41.438Z,12.70
2022-12-18T16:03:10.221Z,13.35
2022-12-18T16:05:37.224Z,13.68
2022-12-18T16:08:04.148Z,12.05
2022-12-18T16:10:30.857Z,13.93
2022-12-18T16:12:57.561Z,12.57
2022-12-18T16:15:24.978Z,14.55
2022-12-18T16:17:52.731Z,13.65
2022-12-18T16:20:22.348Z,13.60
2022-12-18T16:22:50.218Z,13.82
2022-12-18T16:25:27.031Z,14.10
2022-12-18T16:27:57.835Z,12.98
2022-12-18T16:30:38.378Z,14.43
2022-12-18T16:33:06.964Z,12.20
2022-12-18T16:35:34.644Z,14.55
2022-12-18T16:38:01.331Z,13.40
2022-12-18T16:40:28.059Z,12.85
2022-12-18T16:42:54.771Z,12.20
2022-12-18T16:45:21.536Z,14.55
2022-12-18T16:47:48.300Z,14.13
2022-12-18T16:50:15.200Z,12.23
2022-12-18T16:52:42.132Z,13.82
2022-12-18T16:55:09.436Z,13.27
2022-12-18T16:57:36.244Z,13.50
2022-12-18T17:00:05.796Z,12.55
2022-12-18T17:02:33.888Z,13.57
2022-12-18T17:05:00.851Z,13.65
2022-12-18T17:07:28.334Z,13.65
2022-12-18T17:09:55.771Z,12.63
2022-12-18T17:12:22.995Z,14.55
2022-12-18T17:14:50.069Z,14.82
2022-12-18T17:17:22.279Z,14.02
2022-12-18T17:19:51.093Z,14.82
2022-12-18T17:22:17.952Z,14.93
2022-12-18T17:24:44.681Z,14.68
2022-12-18T17:27:11.413Z,13.00
2022-12-18T17:29:42.464Z,13.98
2022-12-18T17:32:13.432Z,14.15
2022-12-18T17:34:40.600Z,13.40
2022-12-18T17:37:07.464Z,13.77
2022-12-18T17:39:34.360Z,14.75
2022-12-18T17:42:01.267Z,12.02
2022-12-18T17:44:27.983Z,13.95
2022-12-18T17:46:54.776Z,13.68
2022-12-18T17:49:21.922Z,13.85
2022-12-18T17:51:48.959Z,13.15
2022-12-18T17:54:15.721Z,12.73
2022-12-18T17:56:42.709Z,15.07
2022-12-18T17:59:09.613Z,15.23
2022-12-18T18:01:42.446Z,13.23
2022-12-18T18:04:11.457Z,13.30
2022-12-18T18:06:39.068Z,15.02
2022-12-18T18:09:08.241Z,13.45
2022-12-18T18:12:01.386Z,14.38
2022-12-18T18:14:28.274Z,14.80
2022-12-18T18:16:55.054Z,13.35
2022-12-18T18:19:25.085Z,14.98
2022-12-18T18:21:53.684Z,12.95
2022-12-18T18:24:23.449Z,13.70
2022-12-18T18:26:50.756Z,12.93
2022-12-18T18:29:24.106Z,14.63
2022-12-18T18:31:53.521Z,12.23
2022-12-18T18:34:27.300Z,15.32
2022-12-18T18:36:54.107Z,15.75
2022-12-18T18:39:21.090Z,13.77
2022-12-18T18:41:48.800Z,13.93
2022-12-18T18:44:17.619Z,11.98
2022-12-18T18:46:45.358Z,15.98
2022-12-18T18:49:13.585Z,16.58
2022-12-18T18:51:41.535Z,14.00
2022-12-18T18:54:09.063Z,14.52
2022-12-18T18:59:30.347Z,15.38
2022-12-18T19:01:59.819Z,16.17
2022-12-18T19:04:29.541Z,16.38
2022-12-18T19:06:56.227Z,15.15
2022-12-18T19:09:24.013Z,15.57
2022-12-18T19:12:09.368Z,15.07
2022-12-18T19:14:36.265Z,13.10
2022-12-18T19:17:02.933Z,14.88
2022-12-18T19:19:31.062Z,14.88
2022-12-18T19:21:57.823Z,17.67
2022-12-18T19:24:24.534Z,16.30
2022-12-18T19:26:52.056Z,14.93
2022-12-18T19:29:19.976Z,14.02
2022-12-18T19:31:46.703Z,14.23
2022-12-18T19:34:13.696Z,14.63
2022-12-18T19:36:41.383Z,14.40
2022-12-18T19:39:15.583Z,15.65
2022-12-18T19:41:42.952Z,14.52
2022-12-18T19:44:12.791Z,15.93
2022-12-18T19:46:41.981Z,16.75
2022-12-18T19:49:10.906Z,14.13
2022-12-18T19:51:38.467Z,15.50
2022-12-18T19:54:05.424Z,17.05
2022-12-18T19:56:34.699Z,15.90
2022-12-18T19:59:03.515Z,14.13
2022-12-18T20:01:31.394Z,14.65
2022-12-18T20:03:59.774Z,15.40
2022-12-18T20:06:34.795Z,15.68
2022-12-18T20:09:06.184Z,14.15
2022-12-18T20:11:39.650Z,14.80
2022-12-18T20:14:12.979Z,15.65
2022-12-18T20:16:40.357Z,16.95
2022-12-18T20:19:08.058Z,15.55
2022-12-18T20:21:35.391Z,15.68
2022-12-18T20:24:02.243Z,15.48
2022-12-18T20:26:29.392Z,16.40
2022-12-18T20:28:56.677Z,15.73
2022-12-18T20:31:24.250Z,15.93
2022-12-18T20:33:53.446Z,16.60
2022-12-18T20:36:23.555Z,15.63
2022-12-18T20:38:57.089Z,15.48
2022-12-18T20:41:25.104Z,15.52
2022-12-18T20:43:51.872Z,15.90
2022-12-18T20:46:19.159Z,16.42
2022-12-18T20:48:47.998Z,15.80
2022-12-18T20:51:18.140Z,16.45
2022-12-18T20:53:46.300Z,17.25
2022-12-18T20:56:21.611Z,17.58
2022-12-18T20:58:50.026Z,16.50
2022-12-18T21:01:20.364Z,16.23
2022-12-18T21:03:47.790Z,17.08
2022-12-18T21:06:16.567Z,17.80
2022-12-18T21:08:43.847Z,15.45
2022-12-18T21:11:38.134Z,18.58
2022-12-18T21:14:10.560Z,16.25
2022-12-18T21:19:04.455Z,16.63
2022-12-18T21:21:32.446Z,17.98
2022-12-18T21:24:05.370Z,18.73
2022-12-18T21:26:32.187Z,17.83
2022-12-18T21:29:02.932Z,17.63
2022-12-18T21:31:36.284Z,19.27
2022-12-18T21:34:05.935Z,18.23
2022-12-18T21:36:34.288Z,19.02
2022-12-18T21:39:01.398Z,19.05
2022-12-18T21:41:47.386Z,19.45
2022-12-18T21:44:17.288Z,19.25
2022-12-18T21:46:51.365Z,18.25
2022-12-18T21:49:22.004Z,19.35
2022-12-18T21:51:51.814Z,22.05
2022-12-18T21:54:19.996Z,19.23
2022-12-18T21:56:56.156Z,19.52
2022-12-18T21:59:36.597Z,19.73
2022-12-18T22:02:12.085Z,19.30
2022-12-18T22:04:39.080Z,21.10
2022-12-18T22:07:06.025Z,20.10
2022-12-18T22:09:32.891Z,20.67
2022-12-18T22:11:59.944Z,18.42
2022-12-18T22:14:26.729Z,22.00
2022-12-18T22:16:55.696Z,20.40
2022-12-18T22:19:24.639Z,20.45
2022-12-18T22:21:52.433Z,22.48
2022-12-18T22:24:22.419Z,23.80
2022-12-18T22:26:52.807Z,22.02
2022-12-18T22:29:42.880Z,21.95
2022-12-18T22:32:14.581Z,20.80
2022-12-18T22:34:42.469Z,22.98
2022-12-18T22:37:12.015Z,22.42
2022-12-18T22:39:38.978Z,21.02
2022-12-18T22:42:06.226Z,21.60
2022-12-18T22:44:32.945Z,22.77
2022-12-18T22:47:05.478Z,21.83
2022-12-18T22:49:35.229Z,22.90
2022-12-18T22:52:04.250Z,22.13
2022-12-18T22:54:31.089Z,21.83
2022-12-18T22:56:58.058Z,23.35
2022-12-18T22:59:25.074Z,22.20
2022-12-18T23:01:54.523Z,21.85
2022-12-18T23:04:30.164Z,21.92
2022-12-18T23:07:04.858Z,22.75
2022-12-18T23:09:32.275Z,21.63
2022-12-18T23:11:58.974Z,23.38
2022-12-18T23:14:26.285Z,23.30
2022-12-18T23:16:53.238Z,23.73
2022-12-18T23:19:21.289Z,23.63
2022-12-18T23:21:51.127Z,21.65
2022-12-18T23:24:18.364Z,22.05
2022-12-18T23:26:45.088Z,21.90
2022-12-18T23:29:11.769Z,22.60
2022-12-18T23:31:39.750Z,21.83
2022-12-18T23:34:07.119Z,20.27
2022-12-18T23:36:45.937Z,21.75
2022-12-18T23:39:28.792Z,20.27
2022-12-18T23:41:58.210Z,20.38
2022-12-18T23:44:25.234Z,21.98
2022-12-18T23:46:52.174Z,22.85
2022-12-18T23:49:18.878Z,23.70
2022-12-18T23:51:45.605Z,21.10
2022-12-18T23:54:12.344Z,22.83
2022-12-18T23:56:39.086Z,21.90
2022-12-18T23:59:05.825Z,22.38
